Saint Thomas, VI

10:19 AM AST on February 21, 2017 (GMT -0400)
Cape Air, Crown Mountain Summit, St. Thomas, USVI | | Change Station

Elev 1534 ft 18.36 °N, 64.97 °W | Updated 2 seconds ago

Mostly Cloudy
Mostly Cloudy
71.9 °F
Feels Like 71 °F
N
6.0
Wind Variable Wind from NE
Gusts 17.0 mph

Today
High -- | Low -- °F
--% Chance of Precip.
Yesterday
High -- | Low -- °F
Precip. -- in
Pressure 29.91 in
Visibility 10.0 miles
Clouds Few 4500 ft
Mostly Cloudy 5500 ft
Mostly Cloudy 7000 ft
Heat Index 71 °F
Dew Point 67 °F
Humidity 84%
Rainfall 0.25 in
Snow Depth Not available.
6:43 AM 6:23 PM
Waning Crescent, 25% visible
METAR TIST 211353Z 30009KT 10SM FEW045 BKN055 BKN070 24/21 A2990 RMK AO2 RAB26E42 SLP126 P0001 T02440206
Pressure 29.91 in
Visibility 10.0 miles
Clouds Few 4500 ft
Mostly Cloudy 5500 ft
Mostly Cloudy 7000 ft
Heat Index 71 °F
Dew Point 67 °F
Humidity 84%
Rainfall 0.25 in
Snow Depth Not available.
6:43 AM 6:23 PM
Waning Crescent, 25% visible
METAR TIST 211353Z 30009KT 10SM FEW045 BKN055 BKN070 24/21 A2990 RMK AO2 RAB26E42 SLP126 P0001 T02440206

Get Your Daily Forecast Email!

Thanks for signing up!

Be on the lookout for a verification email in your inbox.

You'll start receiving the daily forecast at 8 AM.

×

10-Day Weather Forecast

Almanac

Astronomy

Feb. 21, 2017 Rise Set
Actual Time
Civil Twilight
Nautical Twilight
Astronomical Twilight
Moon
Length of Visible Light
Length of Day
Tomorrow will be .
, % of the Moon is Illuminated

Today's Extremes

State Highs State Lows

Community

WunderPhotos

Upload Photos

1,962,540 photos uploaded!

WunderBlog® & News

Nearby

Air Quality

  Air Quality AQ Index Pollutant
Not available.

Snow Depth

Station Depth Elevation

Earthquake Activity

City Distance Mag. Time & Date
Minimum magnitude displayed is 2.5.

Coastal Water Temperatures

Place Temperature

Stations

Nearby Weather Stations

Station Location Temp. Windchill Dew Point Humidity Wind Precip. Elev Updated Type
                   

Watches & Warnings

There are currently no watches in effect.